2017/05/25 21:30 VVNB 252130Z 01005KT 340V070 CAVOK 24/13 Q1011 NOSIG
2017/05/25 21:30 VVDN 252130Z VRB01KT 6000 -RA SCT013 FEW017CB BKN050 25/24 Q1008 NOSIG
2017/05/25 21:30 VVTS 252130Z 22002KT 9999 SCT015 27/25 Q1006 NOSIG
2017/05/25 21:00 VVPB 252100Z 25008KT 8000 SCT013 BKN020 BKN100 24/24 Q1009 NOSIG

Powered by MinhViet JSC.